Time;durP1;ratioP1;P1;durP2;ratioP2;P2;SDS_P1;SDS_P2;PMS_P1;PMS_P2;Temp;Humidity;BMP_temperature;BMP_pressure;BME280_temperature;BME280_humidity;BME280_pressure;Samples;Min_cycle;Max_cycle;Signal;HPM_P1;HPM_P2
2023/10/05 00:01:56;;;;;;;4.37;2.50;;;15.40;70.50;;;;;;5034537;28;20480;-67
2023/10/05 00:04:24;;;;;;;2.77;2.10;;;15.40;71.60;;;;;;5054316;28;20595;-67
2023/10/05 00:06:54;;;;;;;2.60;2.13;;;15.40;70.80;;;;;;5054802;28;20455;-66
2023/10/05 00:09:21;;;;;;;3.33;2.20;;;15.40;71.10;;;;;;5053339;28;20489;-67
2023/10/05 00:11:50;;;;;;;3.40;2.00;;;15.40;71.20;;;;;;5051545;28;20552;-66
2023/10/05 00:14:17;;;;;;;3.53;2.20;;;15.30;71.20;;;;;;5050071;28;20781;-67
2023/10/05 00:16:47;;;;;;;3.17;2.20;;;15.30;70.80;;;;;;5045459;28;20440;-67
2023/10/05 00:19:17;;;;;;;2.40;2.20;;;15.30;70.70;;;;;;5054717;28;20863;-67
2023/10/05 00:21:50;;;;;;;5.27;2.43;;;15.20;70.80;;;;;;5049204;28;20758;-67
2023/10/05 00:24:20;;;;;;;3.90;2.23;;;15.20;71.10;;;;;;5054290;28;20896;-67
2023/10/05 00:26:49;;;;;;;4.50;2.30;;;15.10;71.00;;;;;;5054604;28;20547;-67
2023/10/05 00:29:25;;;;;;;3.10;2.40;;;15.10;71.20;;;;;;5054253;28;20523;-66
2023/10/05 00:31:53;;;;;;;2.83;2.40;;;15.10;72.20;;;;;;5052429;28;20484;-66
2023/10/05 00:34:24;;;;;;;3.60;2.77;;;15.00;71.30;;;;;;5054287;28;20487;-67
2023/10/05 00:36:53;;;;;;;2.80;2.37;;;15.10;71.60;;;;;;5054431;28;20482;-67
2023/10/05 00:39:21;;;;;;;3.33;2.30;;;15.10;71.60;;;;;;5053557;28;20452;-66
2023/10/05 00:41:49;;;;;;;3.03;2.27;;;15.10;71.60;;;;;;5054290;28;21019;-66
2023/10/05 00:44:18;;;;;;;3.27;2.27;;;15.10;71.30;;;;;;5053844;28;20484;-66
2023/10/05 00:46:49;;;;;;;4.73;2.20;;;15.10;71.00;;;;;;5053270;28;20457;-67
2023/10/05 00:49:21;;;;;;;4.77;2.50;;;15.10;71.00;;;;;;5053434;28;20456;-67
2023/10/05 00:51:58;;;;;;;3.20;2.17;;;15.10;71.00;;;;;;5053973;28;20460;-67
2023/10/05 00:54:30;;;;;;;3.27;2.33;;;15.10;71.00;;;;;;5054074;28;20519;-67
2023/10/05 00:57:02;;;;;;;4.00;2.40;;;15.10;70.90;;;;;;5053480;28;20816;-66
2023/10/05 00:59:31;;;;;;;2.83;2.17;;;15.10;71.00;;;;;;5052904;28;20464;-67
2023/10/05 01:02:14;;;;;;;2.57;2.20;;;15.10;70.90;;;;;;5053551;28;20456;-66
2023/10/05 01:04:56;;;;;;;3.30;2.30;;;15.10;70.80;;;;;;5052172;28;20587;-66
2023/10/05 01:07:42;;;;;;;4.37;2.20;;;15.00;70.80;;;;;;5053421;28;20460;-66
2023/10/05 01:10:28;;;;;;;2.70;2.30;;;15.00;70.90;;;;;;5052647;28;20480;-66
2023/10/05 01:12:56;;;;;;;3.07;2.37;;;15.00;70.90;;;;;;5052945;28;20937;-67
2023/10/05 01:15:30;;;;;;;2.70;2.07;;;15.00;71.00;;;;;;5052768;28;20472;-67
2023/10/05 01:17:57;;;;;;;3.07;2.03;;;15.00;70.90;;;;;;5045471;28;20537;-67
2023/10/05 01:20:25;;;;;;;3.50;2.30;;;15.00;70.90;;;;;;5035493;28;20465;-66
2023/10/05 01:22:57;;;;;;;4.47;2.33;;;15.00;71.00;;;;;;5036099;28;21006;-66
2023/10/05 01:25:27;;;;;;;2.30;2.10;;;15.00;70.90;;;;;;5049994;28;20477;-66
2023/10/05 01:27:54;;;;;;;3.30;2.30;;;14.90;70.80;;;;;;5043475;28;20518;-66
2023/10/05 01:30:22;;;;;;;4.77;2.60;;;14.90;71.20;;;;;;5042004;28;20499;-66
2023/10/05 01:32:49;;;;;;;4.93;2.33;;;14.90;71.20;;;;;;5044119;28;20464;-67
2023/10/05 01:35:23;;;;;;;3.17;2.50;;;14.90;71.40;;;;;;5052572;28;20448;-67
2023/10/05 01:37:53;;;;;;;2.87;2.23;;;14.90;71.60;;;;;;5042557;28;20479;-67
2023/10/05 01:40:24;;;;;;;2.83;2.20;;;14.90;71.60;;;;;;5052867;28;20448;-67
2023/10/05 01:42:54;;;;;;;4.07;1.90;;;14.90;71.40;;;;;;5052200;28;20518;-67
2023/10/05 01:45:25;;;;;;;3.43;2.27;;;14.90;71.40;;;;;;5052870;28;20480;-66
2023/10/05 01:47:52;;;;;;;3.00;2.00;;;14.90;71.30;;;;;;5052775;28;20474;-66
2023/10/05 01:50:20;;;;;;;4.07;2.40;;;14.80;71.10;;;;;;5052726;28;20480;-68
2023/10/05 01:52:55;;;;;;;3.17;2.23;;;14.80;71.00;;;;;;5052508;28;20448;-66
2023/10/05 01:55:22;;;;;;;2.97;2.40;;;14.80;71.10;;;;;;5052623;28;20555;-67
2023/10/05 01:57:50;;;;;;;2.80;2.10;;;14.80;71.00;;;;;;5051842;28;20463;-67
2023/10/05 02:00:20;;;;;;;3.37;2.23;;;14.80;71.90;;;;;;5052359;28;20955;-66
2023/10/05 02:02:48;;;;;;;2.53;2.20;;;14.80;71.10;;;;;;5052377;28;20819;-66
2023/10/05 02:05:18;;;;;;;2.53;2.10;;;14.80;72.00;;;;;;5052296;28;20545;-66
2023/10/05 02:07:47;;;;;;;2.90;2.10;;;14.80;71.30;;;;;;5052046;28;20456;-66
2023/10/05 02:10:19;;;;;;;3.13;1.87;;;14.80;71.30;;;;;;5052576;28;20479;-67
2023/10/05 02:12:48;;;;;;;3.07;2.40;;;14.80;71.30;;;;;;5052093;28;20492;-66
2023/10/05 02:15:16;;;;;;;2.57;2.20;;;14.70;71.30;;;;;;5052097;28;20530;-66
2023/10/05 02:17:48;;;;;;;2.90;2.00;;;14.80;71.60;;;;;;5052145;28;20504;-67
2023/10/05 02:20:38;;;;;;;4.67;2.57;;;14.70;71.60;;;;;;5052387;28;20464;-67
2023/10/05 02:23:24;;;;;;;3.20;2.30;;;14.70;71.80;;;;;;5036033;28;21019;-67
2023/10/05 02:25:57;;;;;;;3.30;2.50;;;14.70;71.90;;;;;;5051792;28;20488;-67
2023/10/05 02:28:26;;;;;;;3.10;2.50;;;14.70;72.20;;;;;;5032841;28;20476;-66
2023/10/05 02:30:59;;;;;;;3.17;2.33;;;14.70;72.30;;;;;;5051814;28;20456;-67
2023/10/05 02:33:29;;;;;;;3.27;2.60;;;14.70;72.30;;;;;;5051967;28;20486;-66
2023/10/05 02:36:09;;;;;;;7.50;2.50;;;14.70;73.50;;;;;;5051554;28;20964;-67
2023/10/05 02:38:38;;;;;;;3.07;2.57;;;14.80;72.90;;;;;;5049028;28;20480;-66
2023/10/05 02:41:08;;;;;;;2.20;2.00;;;14.70;73.50;;;;;;5051302;28;20538;-66
2023/10/05 02:43:39;;;;;;;3.70;2.30;;;14.80;72.70;;;;;;5051714;28;20476;-67
2023/10/05 02:46:11;;;;;;;4.80;2.17;;;14.80;72.60;;;;;;5051443;28;20645;-67
2023/10/05 02:48:41;;;;;;;3.03;2.47;;;14.80;72.40;;;;;;5051501;28;20487;-66
2023/10/05 02:51:11;;;;;;;6.73;2.10;;;14.80;72.40;;;;;;5051350;28;20550;-66
2023/10/05 02:53:47;;;;;;;5.00;2.00;;;14.80;72.20;;;;;;5050782;28;20456;-67
2023/10/05 02:56:20;;;;;;;2.70;2.10;;;14.70;72.30;;;;;;5052513;28;20455;-67
2023/10/05 02:58:50;;;;;;;4.10;1.87;;;14.70;72.40;;;;;;5051302;28;20840;-67
2023/10/05 03:01:17;;;;;;;3.40;1.97;;;14.60;72.60;;;;;;5051761;28;20455;-67
2023/10/05 03:03:45;;;;;;;3.27;2.10;;;14.60;72.50;;;;;;5051371;28;20459;-67
2023/10/05 03:06:12;;;;;;;3.60;2.00;;;14.50;72.80;;;;;;5051467;28;20579;-67
2023/10/05 03:08:39;;;;;;;2.77;2.20;;;14.50;73.10;;;;;;5051387;28;20484;-67
2023/10/05 03:11:08;;;;;;;3.40;2.00;;;14.60;73.20;;;;;;5050854;28;20511;-67
2023/10/05 03:13:37;;;;;;;3.63;2.20;;;14.60;73.20;;;;;;5051422;28;20531;-67
2023/10/05 03:16:07;;;;;;;4.00;2.00;;;14.50;73.20;;;;;;5051795;28;20456;-67
2023/10/05 03:18:37;;;;;;;5.20;2.47;;;14.60;73.20;;;;;;5050809;28;20452;-66
2023/10/05 03:21:12;;;;;;;2.70;2.27;;;14.60;73.30;;;;;;5050252;28;20456;-66
2023/10/05 03:23:40;;;;;;;4.13;2.23;;;14.60;73.50;;;;;;5049718;28;20483;-67
2023/10/05 03:26:09;;;;;;;2.43;1.97;;;14.60;74.20;;;;;;5032486;28;20568;-66
2023/10/05 03:28:36;;;;;;;5.83;2.33;;;14.60;73.40;;;;;;5042151;28;20534;-66
2023/10/05 03:31:08;;;;;;;3.43;2.10;;;14.60;73.50;;;;;;5050634;28;20463;-66
2023/10/05 03:33:35;;;;;;;2.83;2.30;;;14.70;73.30;;;;;;5051208;28;20476;-66
2023/10/05 03:36:06;;;;;;;3.07;1.70;;;14.70;73.30;;;;;;5044667;28;20539;-66
2023/10/05 03:38:37;;;;;;;4.20;2.20;;;14.70;73.30;;;;;;5050876;28;20547;-67
2023/10/05 03:41:08;;;;;;;3.30;2.50;;;14.70;73.30;;;;;;5047913;28;20496;-67
2023/10/05 03:43:35;;;;;;;4.40;2.50;;;14.70;73.50;;;;;;5031356;28;20536;-67
2023/10/05 03:46:08;;;;;;;4.17;2.13;;;14.60;73.60;;;;;;5041826;28;20479;-66
2023/10/05 03:48:38;;;;;;;4.47;2.00;;;14.60;73.90;;;;;;5051240;28;20527;-67
2023/10/05 03:51:16;;;;;;;4.43;2.17;;;14.60;74.20;;;;;;5032159;28;20457;-67
2023/10/05 03:53:48;;;;;;;3.77;2.13;;;14.60;74.30;;;;;;5031555;28;20451;-67
2023/10/05 03:56:23;;;;;;;2.63;2.07;;;14.60;74.40;;;;;;5031806;28;20469;-66
2023/10/05 03:58:52;;;;;;;3.63;2.20;;;14.60;74.60;;;;;;5046932;28;20476;-67
2023/10/05 04:01:21;;;;;;;3.73;2.30;;;14.50;74.40;;;;;;5050708;28;20467;-67
2023/10/05 04:03:50;;;;;;;4.50;2.10;;;14.60;74.80;;;;;;5050794;28;20547;-67
2023/10/05 04:06:18;;;;;;;2.13;1.70;;;14.60;74.70;;;;;;5053698;28;20517;-67
2023/10/05 04:08:49;;;;;;;3.73;2.07;;;14.60;74.70;;;;;;5054627;28;20456;-67
2023/10/05 04:11:18;;;;;;;2.67;2.00;;;14.70;74.60;;;;;;5053825;28;20979;-66
2023/10/05 04:13:46;;;;;;;3.77;2.30;;;14.70;74.50;;;;;;5054043;28;20456;-67
2023/10/05 04:16:18;;;;;;;2.20;2.00;;;14.70;74.50;;;;;;5054257;28;20513;-67
2023/10/05 04:18:49;;;;;;;2.50;2.10;;;14.80;74.50;;;;;;5054377;28;20506;-66
2023/10/05 04:21:18;;;;;;;3.40;2.30;;;14.80;74.30;;;;;;5053990;28;20549;-67
2023/10/05 04:23:49;;;;;;;3.17;2.10;;;14.70;74.10;;;;;;5053873;28;20495;-65
2023/10/05 04:26:20;;;;;;;4.40;2.20;;;14.70;74.20;;;;;;5053809;28;20484;-66
2023/10/05 04:28:57;;;;;;;3.27;2.10;;;14.70;74.40;;;;;;5054154;28;20559;-66
2023/10/05 04:31:25;;;;;;;5.40;2.30;;;14.70;74.50;;;;;;5053775;28;20560;-67
2023/10/05 04:33:55;;;;;;;3.40;2.07;;;14.70;74.50;;;;;;5054202;28;20905;-67
2023/10/05 04:36:23;;;;;;;2.47;2.10;;;14.70;74.60;;;;;;5053641;28;20452;-67
2023/10/05 04:38:54;;;;;;;3.90;2.20;;;14.70;74.70;;;;;;5053622;28;20883;-66
2023/10/05 04:41:28;;;;;;;2.87;2.30;;;14.80;74.80;;;;;;5053780;28;20534;-67
2023/10/05 04:43:55;;;;;;;3.33;2.30;;;14.80;74.80;;;;;;5047247;28;20458;-67
2023/10/05 04:46:22;;;;;;;2.93;2.17;;;14.80;74.70;;;;;;5018572;28;20486;-67
2023/10/05 04:48:58;;;;;;;3.33;2.33;;;14.80;74.70;;;;;;5053662;28;20463;-67
2023/10/05 04:51:28;;;;;;;2.33;2.00;;;14.80;74.70;;;;;;5053044;28;20481;-67
2023/10/05 04:53:58;;;;;;;2.93;2.23;;;14.80;74.70;;;;;;5053374;28;20480;-66
2023/10/05 04:56:35;;;;;;;2.80;2.07;;;14.80;74.70;;;;;;5053896;28;20472;-67
2023/10/05 05:02:00;;;;;;;2.47;2.10;;;14.90;74.80;;;;;;5053709;28;20471;-68
2023/10/05 05:04:27;;;;;;;2.60;2.00;;;14.80;75.50;;;;;;5053557;28;20506;-67
2023/10/05 05:06:56;;;;;;;2.70;2.10;;;14.80;74.80;;;;;;5053308;28;20992;-67
2023/10/05 05:09:29;;;;;;;2.97;1.90;;;14.80;75.00;;;;;;5052100;28;20472;-67
2023/10/05 05:12:03;;;;;;;4.27;2.40;;;14.80;75.10;;;;;;5046049;28;20460;-66
2023/10/05 05:14:32;;;;;;;4.03;2.50;;;14.80;75.10;;;;;;5051585;28;20532;-67
2023/10/05 05:17:02;;;;;;;3.03;2.30;;;14.90;75.30;;;;;;5052994;28;20440;-66
2023/10/05 05:19:29;;;;;;;7.90;2.47;;;14.80;75.20;;;;;;5052235;28;20515;-67
2023/10/05 05:21:56;;;;;;;4.30;2.30;;;14.80;75.20;;;;;;5053593;28;20452;-67
2023/10/05 05:24:28;;;;;;;4.20;2.40;;;14.80;75.50;;;;;;5036049;28;21011;-68
2023/10/05 05:26:54;;;;;;;2.67;2.10;;;14.90;75.60;;;;;;5051516;28;20579;-66
2023/10/05 05:29:20;;;;;;;3.57;2.20;;;14.90;75.60;;;;;;5046742;28;20479;-67
2023/10/05 05:31:49;;;;;;;5.13;2.70;;;14.90;75.60;;;;;;5011562;28;20218;-67
2023/10/05 05:34:16;;;;;;;2.83;2.40;;;14.90;75.50;;;;;;5039309;28;20461;-67
2023/10/05 05:36:43;;;;;;;3.10;2.20;;;14.90;75.40;;;;;;5045819;28;20558;-67
2023/10/05 05:39:17;;;;;;;2.53;2.13;;;15.00;75.50;;;;;;5048668;28;20453;-66
2023/10/05 05:41:45;;;;;;;4.37;2.20;;;15.00;75.50;;;;;;5033515;28;20495;-66
2023/10/05 05:44:20;;;;;;;2.80;2.30;;;15.00;75.40;;;;;;5039309;28;20963;-67
2023/10/05 05:46:47;;;;;;;3.77;2.17;;;15.00;75.60;;;;;;5052230;28;20847;-67
2023/10/05 05:49:16;;;;;;;2.60;2.17;;;15.00;75.60;;;;;;5052268;28;20448;-65
2023/10/05 05:51:43;;;;;;;2.83;2.27;;;15.00;75.60;;;;;;5052663;28;20472;-66
2023/10/05 05:54:10;;;;;;;3.17;2.27;;;14.90;75.60;;;;;;5053014;28;20461;-67
2023/10/05 05:56:37;;;;;;;4.17;2.37;;;15.00;75.80;;;;;;5052865;28;20437;-68
2023/10/05 05:59:06;;;;;;;5.93;2.60;;;15.00;75.70;;;;;;5052573;28;20954;-68
2023/10/05 06:01:35;;;;;;;3.00;2.30;;;15.00;76.10;;;;;;5052039;28;20453;-69
2023/10/05 06:04:03;;;;;;;2.80;2.20;;;15.10;75.80;;;;;;5045416;28;20472;-68
2023/10/05 06:06:30;;;;;;;4.73;2.20;;;15.10;76.00;;;;;;5035976;28;20526;-67
2023/10/05 06:08:57;;;;;;;3.87;2.07;;;15.10;76.10;;;;;;5042722;28;20542;-67
2023/10/05 06:11:24;;;;;;;4.97;2.63;;;15.10;76.10;;;;;;5042747;28;20821;-66
2023/10/05 06:13:51;;;;;;;3.10;2.20;;;15.10;75.80;;;;;;5032433;28;20520;-66
2023/10/05 06:16:19;;;;;;;3.43;2.60;;;15.20;75.70;;;;;;5032085;28;20440;-67
2023/10/05 06:18:46;;;;;;;2.73;2.30;;;15.20;75.60;;;;;;5032791;28;20441;-66
2023/10/05 06:21:13;;;;;;;3.30;2.40;;;15.20;75.50;;;;;;5041310;28;20531;-68
2023/10/05 06:23:40;;;;;;;6.73;2.50;;;15.20;75.60;;;;;;5052604;28;20440;-68
2023/10/05 06:26:07;;;;;;;5.20;2.43;;;15.20;75.60;;;;;;5051659;28;20514;-68
2023/10/05 06:28:34;;;;;;;4.20;2.30;;;15.20;75.70;;;;;;5016611;28;20463;-68
2023/10/05 06:31:02;;;;;;;4.30;2.20;;;15.20;75.90;;;;;;5038455;28;20472;-68
2023/10/05 06:33:33;;;;;;;5.07;2.83;;;15.20;75.80;;;;;;5052054;28;20445;-68
2023/10/05 06:36:03;;;;;;;3.93;2.50;;;15.30;75.80;;;;;;5052038;28;20486;-67
2023/10/05 06:38:30;;;;;;;3.63;2.10;;;15.30;75.80;;;;;;5052420;28;20448;-68
2023/10/05 06:40:57;;;;;;;3.47;2.00;;;15.30;76.00;;;;;;5050854;28;20455;-68
2023/10/05 06:43:26;;;;;;;3.73;2.40;;;15.30;76.10;;;;;;5051792;28;20883;-67
2023/10/05 06:45:53;;;;;;;2.67;2.20;;;15.40;76.30;;;;;;5046243;28;20569;-67
2023/10/05 06:48:20;;;;;;;3.83;2.40;;;15.40;76.60;;;;;;5040517;28;20987;-67
2023/10/05 06:50:48;;;;;;;2.77;2.00;;;15.40;77.50;;;;;;5051339;28;20455;-67
2023/10/05 06:53:15;;;;;;;2.63;2.37;;;15.50;76.90;;;;;;5051996;28;20452;-68
2023/10/05 06:55:41;;;;;;;4.97;2.57;;;15.50;76.80;;;;;;5051616;28;20464;-67
2023/10/05 06:58:09;;;;;;;4.30;2.60;;;15.50;76.80;;;;;;5046739;28;20466;-67
2023/10/05 07:00:35;;;;;;;3.80;2.63;;;15.50;76.80;;;;;;5046143;28;20453;-68
2023/10/05 07:03:06;;;;;;;4.73;2.90;;;15.60;76.80;;;;;;5031784;28;20536;-67
2023/10/05 07:05:33;;;;;;;5.70;2.53;;;15.60;77.60;;;;;;5031878;28;20473;-67
2023/10/05 07:08:01;;;;;;;3.90;2.47;;;15.60;76.80;;;;;;5032023;28;20449;-67
2023/10/05 07:10:28;;;;;;;4.53;2.60;;;15.60;76.90;;;;;;5040668;28;20473;-70
2023/10/05 07:12:55;;;;;;;6.00;2.60;;;15.70;76.80;;;;;;5051439;28;20449;-69
2023/10/05 07:15:22;;;;;;;4.83;2.90;;;15.80;76.80;;;;;;5051399;28;20481;-68
2023/10/05 07:17:49;;;;;;;6.87;2.90;;;15.80;76.80;;;;;;5051731;28;20811;-68
2023/10/05 07:20:16;;;;;;;5.87;3.27;;;15.80;76.80;;;;;;5051408;28;20448;-68
2023/10/05 07:22:44;;;;;;;4.43;3.07;;;15.90;76.80;;;;;;5050926;28;20480;-67
2023/10/05 07:25:14;;;;;;;4.53;3.10;;;16.00;76.80;;;;;;5050563;28;20448;-69
2023/10/05 07:27:42;;;;;;;5.77;3.63;;;16.00;76.80;;;;;;5050498;28;20495;-68
2023/10/05 07:30:10;;;;;;;6.07;3.07;;;16.10;76.90;;;;;;5049633;28;20502;-68
2023/10/05 07:32:40;;;;;;;5.40;3.20;;;16.10;76.90;;;;;;5043510;28;20461;-68
2023/10/05 07:35:09;;;;;;;7.53;3.30;;;16.10;76.90;;;;;;5030712;28;20449;-68
2023/10/05 07:37:37;;;;;;;4.40;3.13;;;16.10;76.90;;;;;;5031493;28;20445;-68
2023/10/05 07:40:04;;;;;;;6.63;3.73;;;16.20;77.00;;;;;;5032171;28;20875;-68
2023/10/05 07:42:37;;;;;;;4.23;3.13;;;16.20;77.20;;;;;;5035523;28;20453;-68
2023/10/05 07:45:07;;;;;;;6.57;2.80;;;16.30;78.00;;;;;;5042572;28;20527;-68
2023/10/05 07:47:34;;;;;;;5.67;3.20;;;16.40;77.30;;;;;;5054895;28;20476;-69
2023/10/05 07:50:01;;;;;;;4.77;3.30;;;16.50;77.00;;;;;;5054950;28;20472;-69
2023/10/05 07:52:28;;;;;;;4.50;3.30;;;16.60;77.00;;;;;;5055540;28;20451;-68
2023/10/05 07:54:55;;;;;;;6.40;3.20;;;16.60;76.90;;;;;;5054933;28;20462;-69
2023/10/05 07:57:22;;;;;;;5.00;3.33;;;16.70;76.60;;;;;;5054811;28;20440;-68
2023/10/05 07:59:50;;;;;;;6.23;3.17;;;16.80;76.60;;;;;;5054514;28;20448;-68
2023/10/05 08:02:18;;;;;;;7.23;3.40;;;16.80;76.10;;;;;;5054944;28;20490;-69
2023/10/05 08:04:45;;;;;;;4.90;3.20;;;16.90;76.20;;;;;;5054784;28;20456;-69
2023/10/05 08:07:15;;;;;;;5.27;3.80;;;17.00;76.30;;;;;;5054590;28;20499;-67
2023/10/05 08:09:42;;;;;;;4.80;3.17;;;17.00;75.50;;;;;;5036321;28;20487;-69
2023/10/05 08:12:11;;;;;;;6.53;3.23;;;17.00;75.50;;;;;;5052929;28;20486;-68
2023/10/05 08:14:38;;;;;;;7.47;3.70;;;17.00;76.40;;;;;;5046113;28;20945;-68
2023/10/05 08:17:06;;;;;;;7.93;3.50;;;17.10;75.30;;;;;;5034513;28;20449;-69
2023/10/05 08:19:35;;;;;;;5.47;3.70;;;17.20;75.40;;;;;;5035509;28;20490;-68
2023/10/05 08:22:02;;;;;;;5.50;3.20;;;17.30;75.80;;;;;;5050310;28;20455;-68
2023/10/05 08:24:31;;;;;;;5.87;3.03;;;17.40;74.60;;;;;;5047062;28;20563;-68
2023/10/05 08:26:58;;;;;;;6.43;3.47;;;17.40;74.30;;;;;;5045739;28;21008;-68
2023/10/05 08:29:26;;;;;;;6.67;3.33;;;17.50;74.10;;;;;;5043868;28;20485;-68
2023/10/05 08:31:53;;;;;;;6.37;3.37;;;17.50;73.70;;;;;;5034029;28;20453;-68
2023/10/05 08:34:21;;;;;;;5.43;3.53;;;17.60;73.70;;;;;;5034317;28;20449;-68
2023/10/05 08:36:53;;;;;;;6.40;4.13;;;17.70;73.80;;;;;;5036902;28;20202;-68
2023/10/05 08:39:24;;;;;;;5.33;3.33;;;17.70;73.30;;;;;;5053948;28;20502;-68
2023/10/05 08:41:54;;;;;;;6.90;3.37;;;17.70;73.30;;;;;;5053759;28;20505;-67
2023/10/05 08:44:26;;;;;;;4.30;3.27;;;17.70;73.20;;;;;;5054254;28;20455;-68
2023/10/05 08:46:55;;;;;;;5.43;3.30;;;17.80;73.20;;;;;;5036280;28;20500;-69
2023/10/05 08:49:24;;;;;;;6.97;3.30;;;17.90;73.50;;;;;;5054384;28;20205;-69
2023/10/05 08:51:52;;;;;;;6.63;3.17;;;18.00;72.60;;;;;;5052218;28;20484;-68
2023/10/05 08:54:21;;;;;;;5.33;4.00;;;18.10;72.30;;;;;;5053769;28;20230;-68
2023/10/05 08:56:49;;;;;;;5.37;3.40;;;18.10;71.90;;;;;;5052654;28;20210;-68
2023/10/05 08:59:16;;;;;;;6.73;3.40;;;18.20;71.90;;;;;;5043734;28;20671;-69
2023/10/05 09:01:45;;;;;;;5.70;3.80;;;18.30;71.60;;;;;;5034159;28;20215;-68
2023/10/05 09:04:23;;;;;;;6.83;3.83;;;18.40;71.10;;;;;;5034030;28;20273;-69
2023/10/05 09:06:56;;;;;;;5.70;3.53;;;18.50;71.00;;;;;;5033906;28;20477;-68
2023/10/05 09:09:38;;;;;;;7.63;3.87;;;18.50;70.70;;;;;;5033462;28;20280;-69
2023/10/05 09:12:22;;;;;;;7.10;4.03;;;18.60;70.80;;;;;;5033267;28;20449;-68
2023/10/05 09:15:05;;;;;;;5.87;3.20;;;18.70;70.40;;;;;;5033649;28;20226;-69
2023/10/05 09:17:34;;;;;;;6.70;3.80;;;18.90;70.90;;;;;;5033460;28;20205;-69
2023/10/05 09:20:21;;;;;;;8.20;3.60;;;19.00;70.30;;;;;;5034422;28;20228;-69
2023/10/05 09:22:50;;;;;;;6.27;3.67;;;19.10;69.20;;;;;;5033715;28;20214;-68
2023/10/05 09:25:26;;;;;;;8.23;3.30;;;19.10;69.20;;;;;;5052599;28;20293;-69
2023/10/05 09:27:53;;;;;;;7.97;3.33;;;19.10;69.60;;;;;;5036162;28;20221;-69
2023/10/05 09:30:22;;;;;;;5.50;3.33;;;19.20;69.60;;;;;;5052839;28;20206;-69
2023/10/05 09:32:49;;;;;;;7.80;3.70;;;19.20;69.40;;;;;;5053037;28;20252;-68
2023/10/05 09:35:28;;;;;;;8.30;3.33;;;19.20;69.10;;;;;;5053156;28;20292;-69
2023/10/05 09:38:00;;;;;;;6.53;3.80;;;19.30;69.10;;;;;;5052769;28;20206;-69
2023/10/05 09:40:28;;;;;;;5.03;3.27;;;19.30;69.40;;;;;;5052363;28;20248;-68
2023/10/05 09:42:57;;;;;;;8.70;3.70;;;19.50;69.70;;;;;;5052835;28;20760;-69
2023/10/05 09:45:27;;;;;;;6.20;3.20;;;19.60;69.10;;;;;;5052658;28;20263;-67
2023/10/05 09:47:55;;;;;;;8.87;3.40;;;19.80;69.40;;;;;;5051633;28;20276;-68
2023/10/05 09:50:26;;;;;;;7.87;4.67;;;20.00;68.80;;;;;;5052482;28;20212;-67
2023/10/05 09:52:56;;;;;;;5.80;3.73;;;20.20;68.30;;;;;;5052499;28;20206;-67
2023/10/05 09:55:25;;;;;;;8.17;3.80;;;20.30;67.80;;;;;;5052361;28;20226;-67
2023/10/05 09:57:56;;;;;;;9.13;3.63;;;20.40;67.60;;;;;;5052721;28;20559;-68
2023/10/05 10:00:30;;;;;;;6.47;3.57;;;20.60;67.80;;;;;;5034458;28;20201;-67
2023/10/05 10:02:59;;;;;;;7.77;3.73;;;20.80;66.70;;;;;;5052090;28;20201;-64
2023/10/05 10:05:33;;;;;;;6.37;3.50;;;20.90;66.50;;;;;;5052549;28;20707;-65
2023/10/05 10:08:09;;;;;;;10.33;4.13;;;20.90;64.90;;;;;;5052330;28;20267;-66
2023/10/05 10:10:41;;;;;;;5.50;3.17;;;21.00;64.20;;;;;;5052549;28;20596;-65
2023/10/05 10:13:11;;;;;;;9.67;3.63;;;21.20;64.10;;;;;;5052642;28;20619;-65
2023/10/05 10:15:39;;;;;;;6.77;4.17;;;21.30;64.50;;;;;;5052471;28;20214;-65
2023/10/05 10:18:14;;;;;;;9.40;3.93;;;21.40;63.60;;;;;;5052591;28;20577;-65
2023/10/05 10:20:48;;;;;;;9.10;4.20;;;21.60;63.80;;;;;;5051762;28;20200;-66
2023/10/05 10:23:19;;;;;;;10.70;4.07;;;21.70;63.30;;;;;;5041884;28;20667;-66
2023/10/05 10:25:50;;;;;;;7.30;4.00;;;21.80;61.60;;;;;;5032638;28;20202;-65
2023/10/05 10:28:35;;;;;;;8.97;3.80;;;21.90;62.30;;;;;;5031229;28;20238;-65
2023/10/05 10:31:16;;;;;;;6.47;4.03;;;22.00;61.70;;;;;;5051786;28;20213;-64
2023/10/05 10:33:43;;;;;;;8.13;4.30;;;22.30;61.20;;;;;;5051946;28;20237;-65
2023/10/05 10:36:18;;;;;;;8.37;4.13;;;22.50;60.70;;;;;;5052305;28;20260;-65
2023/10/05 10:38:50;;;;;;;8.73;4.07;;;22.70;61.10;;;;;;5051653;28;20247;-65
2023/10/05 10:41:21;;;;;;;7.13;3.90;;;22.90;60.00;;;;;;5051789;28;20220;-64
2023/10/05 10:43:53;;;;;;;8.07;3.97;;;22.90;59.60;;;;;;5044993;28;20210;-66
2023/10/05 10:46:28;;;;;;;6.73;3.90;;;22.90;58.80;;;;;;5032076;28;20210;-65
2023/10/05 10:48:58;;;;;;;7.20;4.10;;;22.90;58.90;;;;;;5033277;28;20225;-67
2023/10/05 10:51:28;;;;;;;7.23;4.10;;;22.80;58.10;;;;;;5045189;28;20255;-67
2023/10/05 10:53:57;;;;;;;12.13;8.57;;;22.50;57.90;;;;;;5050662;28;20202;-65
2023/10/05 10:56:34;;;;;;;9.00;4.23;;;22.40;58.60;;;;;;5051824;28;20233;-66
2023/10/05 10:59:12;;;;;;;10.43;6.23;;;22.50;58.50;;;;;;5051538;28;20204;-65
2023/10/05 11:01:41;;;;;;;10.07;5.30;;;22.60;57.50;;;;;;5051204;28;20229;-66
2023/10/05 11:04:23;;;;;;;10.20;7.10;;;22.50;57.90;;;;;;5037238;28;20203;-65
2023/10/05 11:06:54;;;;;;;9.17;7.53;;;22.30;58.10;;;;;;5049111;28;20760;-66
2023/10/05 11:09:30;;;;;;;9.97;5.57;;;22.30;58.20;;;;;;5050973;28;20289;-65
2023/10/05 11:12:08;;;;;;;10.40;6.30;;;22.20;58.50;;;;;;5051386;28;20786;-67
2023/10/05 11:14:37;;;;;;;12.40;7.83;;;22.20;57.90;;;;;;5051058;28;20677;-66
2023/10/05 11:17:11;;;;;;;12.20;5.97;;;22.00;58.10;;;;;;5055432;28;20205;-65
2023/10/05 11:19:42;;;;;;;10.00;6.30;;;21.90;58.20;;;;;;5055562;28;20229;-65
2023/10/05 11:22:12;;;;;;;15.83;9.20;;;21.90;58.80;;;;;;5038650;28;20206;-66
2023/10/05 11:25:07;;;;;;;13.63;6.60;;;22.00;58.10;;;;;;5033503;28;20321;-65
2023/10/05 11:27:36;;;;;;;7.27;4.20;;;22.10;58.20;;;;;;5050052;28;20236;-65
2023/10/05 11:30:05;;;;;;;6.33;3.70;;;22.20;58.80;;;;;;5055051;28;20233;-65
2023/10/05 11:32:32;;;;;;;11.63;5.40;;;22.20;58.60;;;;;;5055068;28;20205;-66
2023/10/05 11:35:04;;;;;;;12.53;8.50;;;22.20;58.30;;;;;;5055038;28;20679;-66
2023/10/05 11:37:34;;;;;;;13.23;7.03;;;22.20;57.90;;;;;;5053287;28;20240;-65
2023/10/05 11:40:04;;;;;;;11.23;5.00;;;22.30;58.50;;;;;;5054991;28;20214;-64
2023/10/05 11:42:37;;;;;;;7.77;4.40;;;22.30;58.00;;;;;;5055354;28;20209;-66
2023/10/05 11:45:16;;;;;;;9.53;3.70;;;22.30;58.30;;;;;;5055493;28;20617;-65
2023/10/05 11:47:48;;;;;;;8.50;5.73;;;22.40;58.20;;;;;;5054883;28;20220;-66
2023/10/05 11:50:24;;;;;;;8.20;4.53;;;22.30;58.30;;;;;;5054612;28;20241;-65
2023/10/05 11:52:52;;;;;;;10.53;6.03;;;22.30;58.50;;;;;;5053888;28;20217;-66
2023/10/05 11:55:19;;;;;;;11.93;5.77;;;22.20;58.20;;;;;;5054732;28;20229;-66
2023/10/05 11:57:46;;;;;;;11.73;4.83;;;22.00;58.40;;;;;;5050708;28;20219;-65
2023/10/05 12:00:16;;;;;;;11.87;7.20;;;22.00;58.30;;;;;;5054569;28;20205;-65
2023/10/05 12:02:44;;;;;;;13.37;7.57;;;22.00;58.50;;;;;;5052679;28;20689;-65
2023/10/05 12:05:11;;;;;;;8.90;6.60;;;21.90;58.60;;;;;;5053417;28;20201;-66
2023/10/05 12:07:41;;;;;;;11.53;4.93;;;21.90;58.70;;;;;;5054955;28;20256;-66
2023/10/05 12:10:10;;;;;;;7.90;4.33;;;21.90;58.50;;;;;;5054750;28;20213;-65
2023/10/05 12:12:41;;;;;;;9.00;5.33;;;22.00;58.40;;;;;;5055129;28;20212;-65
2023/10/05 12:15:13;;;;;;;7.70;4.43;;;22.00;58.60;;;;;;5054564;28;20336;-65
2023/10/05 12:17:44;;;;;;;7.67;4.60;;;22.00;58.00;;;;;;5054756;28;20216;-65
2023/10/05 12:20:14;;;;;;;12.73;7.43;;;22.00;58.00;;;;;;5054026;28;20226;-66
2023/10/05 12:22:42;;;;;;;8.80;4.20;;;22.00;58.10;;;;;;5054719;28;20237;-66
2023/10/05 12:25:14;;;;;;;6.13;4.00;;;21.80;58.10;;;;;;5048922;28;20222;-65
2023/10/05 12:27:42;;;;;;;7.63;4.03;;;21.70;58.60;;;;;;5054066;28;20257;-65
2023/10/05 12:30:11;;;;;;;9.07;4.37;;;21.60;58.80;;;;;;5052379;28;20204;-64
2023/10/05 12:32:39;;;;;;;11.17;4.73;;;21.60;58.80;;;;;;5046300;28;20217;-64
2023/10/05 12:35:13;;;;;;;7.60;3.87;;;21.70;59.10;;;;;;5034355;28;20203;-64
2023/10/05 12:37:41;;;;;;;7.87;4.07;;;21.70;59.10;;;;;;5034439;28;20601;-65
2023/10/05 12:40:18;;;;;;;7.27;4.23;;;21.70;59.20;;;;;;5033979;28;20206;-64
2023/10/05 12:42:52;;;;;;;7.20;3.70;;;21.70;59.20;;;;;;5033274;28;20230;-65
2023/10/05 12:45:22;;;;;;;12.97;4.60;;;21.60;58.80;;;;;;5034542;28;20206;-66
2023/10/05 12:47:51;;;;;;;12.17;5.00;;;21.60;59.00;;;;;;5034109;28;20238;-66
2023/10/05 12:50:22;;;;;;;7.63;4.10;;;21.60;58.80;;;;;;5035041;28;20617;-66
2023/10/05 12:52:51;;;;;;;12.30;4.73;;;21.40;59.00;;;;;;5039270;28;20206;-65
2023/10/05 12:55:20;;;;;;;6.77;3.73;;;21.60;59.40;;;;;;5053484;28;20225;-65
2023/10/05 12:57:50;;;;;;;7.20;3.93;;;21.60;59.10;;;;;;5019178;28;20232;-66
2023/10/05 13:00:21;;;;;;;8.60;4.50;;;21.60;59.10;;;;;;5041819;28;20202;-65
2023/10/05 13:02:52;;;;;;;11.17;4.23;;;21.60;59.40;;;;;;5044897;28;20209;-65
2023/10/05 13:05:28;;;;;;;6.17;4.13;;;21.60;59.10;;;;;;5044268;28;20269;-65